sensor_id;sensor_type;location;lat;lon;timestamp;P1;durP1;ratioP1;P2;durP2;ratioP2
36253;SDS011;22291;52.250;21.228;2024-02-21T00:02:15;10.93;;;4.45;;
36253;SDS011;22291;52.250;21.228;2024-02-21T00:04:43;10.43;;;4.22;;
36253;SDS011;22291;52.250;21.228;2024-02-21T00:07:09;13.10;;;4.33;;
36253;SDS011;22291;52.250;21.228;2024-02-21T00:09:36;14.73;;;5.53;;
36253;SDS011;22291;52.250;21.228;2024-02-21T00:12:03;14.45;;;5.37;;
36253;SDS011;22291;52.250;21.228;2024-02-21T00:14:30;11.45;;;5.53;;
36253;SDS011;22291;52.250;21.228;2024-02-21T00:16:56;20.40;;;5.87;;
36253;SDS011;22291;52.250;21.228;2024-02-21T00:19:23;11.85;;;5.78;;
36253;SDS011;22291;52.250;21.228;2024-02-21T00:21:50;14.58;;;5.97;;
36253;SDS011;22291;52.250;21.228;2024-02-21T00:24:16;12.73;;;5.15;;
36253;SDS011;22291;52.250;21.228;2024-02-21T00:26:42;104.97;;;47.48;;
36253;SDS011;22291;52.250;21.228;2024-02-21T00:29:09;24.43;;;11.25;;
36253;SDS011;22291;52.250;21.228;2024-02-21T00:31:34;17.95;;;7.95;;
36253;SDS011;22291;52.250;21.228;2024-02-21T00:34:00;14.63;;;6.12;;
36253;SDS011;22291;52.250;21.228;2024-02-21T00:36:27;14.30;;;6.12;;
36253;SDS011;22291;52.250;21.228;2024-02-21T00:38:53;16.48;;;6.03;;
36253;SDS011;22291;52.250;21.228;2024-02-21T00:41:19;15.50;;;5.80;;
36253;SDS011;22291;52.250;21.228;2024-02-21T00:43:45;18.55;;;6.17;;
36253;SDS011;22291;52.250;21.228;2024-02-21T00:46:13;21.17;;;6.65;;
36253;SDS011;22291;52.250;21.228;2024-02-21T00:48:39;16.93;;;6.10;;
36253;SDS011;22291;52.250;21.228;2024-02-21T00:51:05;13.90;;;6.35;;
36253;SDS011;22291;52.250;21.228;2024-02-21T00:53:31;18.80;;;5.80;;
36253;SDS011;22291;52.250;21.228;2024-02-21T00:55:57;14.47;;;5.28;;
36253;SDS011;22291;52.250;21.228;2024-02-21T00:58:23;15.35;;;5.65;;
36253;SDS011;22291;52.250;21.228;2024-02-21T01:00:50;12.07;;;4.70;;
36253;SDS011;22291;52.250;21.228;2024-02-21T01:03:16;12.20;;;4.75;;
36253;SDS011;22291;52.250;21.228;2024-02-21T01:05:42;18.75;;;4.83;;
36253;SDS011;22291;52.250;21.228;2024-02-21T01:08:08;7.50;;;4.00;;
36253;SDS011;22291;52.250;21.228;2024-02-21T01:10:34;14.10;;;4.15;;
36253;SDS011;22291;52.250;21.228;2024-02-21T01:13:00;15.03;;;5.10;;
36253;SDS011;22291;52.250;21.228;2024-02-21T01:15:26;16.90;;;6.08;;
36253;SDS011;22291;52.250;21.228;2024-02-21T01:17:53;15.03;;;5.20;;
36253;SDS011;22291;52.250;21.228;2024-02-21T01:20:20;14.07;;;5.12;;
36253;SDS011;22291;52.250;21.228;2024-02-21T01:22:47;12.10;;;4.40;;
36253;SDS011;22291;52.250;21.228;2024-02-21T01:25:14;13.93;;;4.80;;
36253;SDS011;22291;52.250;21.228;2024-02-21T01:27:41;17.80;;;5.12;;
36253;SDS011;22291;52.250;21.228;2024-02-21T01:30:08;18.12;;;5.70;;
36253;SDS011;22291;52.250;21.228;2024-02-21T01:32:38;15.08;;;5.05;;
36253;SDS011;22291;52.250;21.228;2024-02-21T01:35:05;12.58;;;4.78;;
36253;SDS011;22291;52.250;21.228;2024-02-21T01:37:33;16.45;;;6.22;;
36253;SDS011;22291;52.250;21.228;2024-02-21T01:39:59;14.40;;;4.90;;
36253;SDS011;22291;52.250;21.228;2024-02-21T01:42:25;13.93;;;6.35;;
36253;SDS011;22291;52.250;21.228;2024-02-21T01:44:52;17.02;;;5.45;;
36253;SDS011;22291;52.250;21.228;2024-02-21T01:47:18;11.48;;;4.75;;
36253;SDS011;22291;52.250;21.228;2024-02-21T01:49:44;19.00;;;6.50;;
36253;SDS011;22291;52.250;21.228;2024-02-21T01:52:11;18.50;;;6.97;;
36253;SDS011;22291;52.250;21.228;2024-02-21T01:54:39;12.75;;;4.08;;
36253;SDS011;22291;52.250;21.228;2024-02-21T01:57:06;15.48;;;6.45;;
36253;SDS011;22291;52.250;21.228;2024-02-21T01:59:32;17.40;;;7.03;;
36253;SDS011;22291;52.250;21.228;2024-02-21T02:01:58;80.97;;;74.87;;
36253;SDS011;22291;52.250;21.228;2024-02-21T02:04:26;76.70;;;70.72;;
36253;SDS011;22291;52.250;21.228;2024-02-21T02:06:53;19.35;;;14.20;;
36253;SDS011;22291;52.250;21.228;2024-02-21T02:09:21;18.87;;;6.97;;
36253;SDS011;22291;52.250;21.228;2024-02-21T02:11:47;15.48;;;6.25;;
36253;SDS011;22291;52.250;21.228;2024-02-21T02:14:13;13.88;;;5.65;;
36253;SDS011;22291;52.250;21.228;2024-02-21T02:16:40;13.80;;;6.80;;
36253;SDS011;22291;52.250;21.228;2024-02-21T02:19:06;17.12;;;7.12;;
36253;SDS011;22291;52.250;21.228;2024-02-21T02:21:32;17.52;;;7.35;;
36253;SDS011;22291;52.250;21.228;2024-02-21T02:24:00;19.62;;;8.08;;
36253;SDS011;22291;52.250;21.228;2024-02-21T02:26:26;15.93;;;7.62;;
36253;SDS011;22291;52.250;21.228;2024-02-21T02:28:52;20.95;;;8.33;;
36253;SDS011;22291;52.250;21.228;2024-02-21T02:31:18;16.55;;;7.80;;
36253;SDS011;22291;52.250;21.228;2024-02-21T02:33:44;16.27;;;8.25;;
36253;SDS011;22291;52.250;21.228;2024-02-21T02:36:10;15.80;;;8.30;;
36253;SDS011;22291;52.250;21.228;2024-02-21T02:38:38;15.75;;;7.42;;
36253;SDS011;22291;52.250;21.228;2024-02-21T02:41:04;18.07;;;7.72;;
36253;SDS011;22291;52.250;21.228;2024-02-21T02:43:30;16.90;;;8.78;;
36253;SDS011;22291;52.250;21.228;2024-02-21T02:45:57;15.72;;;8.00;;
36253;SDS011;22291;52.250;21.228;2024-02-21T02:48:24;20.65;;;9.00;;
36253;SDS011;22291;52.250;21.228;2024-02-21T02:50:50;12.43;;;7.60;;
36253;SDS011;22291;52.250;21.228;2024-02-21T02:53:16;17.48;;;8.23;;
36253;SDS011;22291;52.250;21.228;2024-02-21T02:55:42;17.50;;;9.15;;
36253;SDS011;22291;52.250;21.228;2024-02-21T02:58:08;25.92;;;19.57;;
36253;SDS011;22291;52.250;21.228;2024-02-21T03:00:34;83.50;;;76.87;;
36253;SDS011;22291;52.250;21.228;2024-02-21T03:03:02;59.25;;;54.48;;
36253;SDS011;22291;52.250;21.228;2024-02-21T03:05:31;23.75;;;10.72;;
36253;SDS011;22291;52.250;21.228;2024-02-21T03:07:57;20.23;;;11.12;;
36253;SDS011;22291;52.250;21.228;2024-02-21T03:10:25;26.30;;;9.85;;
36253;SDS011;22291;52.250;21.228;2024-02-21T03:12:51;27.90;;;11.95;;
36253;SDS011;22291;52.250;21.228;2024-02-21T03:15:18;19.27;;;9.90;;
36253;SDS011;22291;52.250;21.228;2024-02-21T03:17:45;18.52;;;9.18;;
36253;SDS011;22291;52.250;21.228;2024-02-21T03:20:11;28.65;;;13.48;;
36253;SDS011;22291;52.250;21.228;2024-02-21T03:22:38;22.05;;;11.63;;
36253;SDS011;22291;52.250;21.228;2024-02-21T03:25:07;22.67;;;12.35;;
36253;SDS011;22291;52.250;21.228;2024-02-21T03:27:36;21.07;;;11.22;;
36253;SDS011;22291;52.250;21.228;2024-02-21T03:30:03;21.02;;;10.43;;
36253;SDS011;22291;52.250;21.228;2024-02-21T03:32:31;22.27;;;10.45;;
36253;SDS011;22291;52.250;21.228;2024-02-21T03:34:57;30.52;;;26.90;;
36253;SDS011;22291;52.250;21.228;2024-02-21T03:37:24;86.95;;;79.75;;
36253;SDS011;22291;52.250;21.228;2024-02-21T03:39:51;60.10;;;54.98;;
36253;SDS011;22291;52.250;21.228;2024-02-21T03:42:17;20.02;;;11.40;;
36253;SDS011;22291;52.250;21.228;2024-02-21T03:44:43;23.27;;;10.60;;
36253;SDS011;22291;52.250;21.228;2024-02-21T03:47:09;23.67;;;10.63;;
36253;SDS011;22291;52.250;21.228;2024-02-21T03:49:37;23.65;;;9.38;;
36253;SDS011;22291;52.250;21.228;2024-02-21T03:52:04;16.90;;;9.50;;
36253;SDS011;22291;52.250;21.228;2024-02-21T03:54:31;24.82;;;10.50;;
36253;SDS011;22291;52.250;21.228;2024-02-21T03:56:57;20.35;;;9.43;;
36253;SDS011;22291;52.250;21.228;2024-02-21T03:59:23;20.00;;;9.05;;
36253;SDS011;22291;52.250;21.228;2024-02-21T04:01:52;21.23;;;8.80;;
36253;SDS011;22291;52.250;21.228;2024-02-21T04:04:20;18.87;;;9.20;;
36253;SDS011;22291;52.250;21.228;2024-02-21T04:06:49;19.98;;;9.83;;
36253;SDS011;22291;52.250;21.228;2024-02-21T04:09:16;16.50;;;8.08;;
36253;SDS011;22291;52.250;21.228;2024-02-21T04:11:42;18.80;;;7.87;;
36253;SDS011;22291;52.250;21.228;2024-02-21T04:14:09;20.57;;;9.33;;
36253;SDS011;22291;52.250;21.228;2024-02-21T04:16:37;16.73;;;7.85;;
36253;SDS011;22291;52.250;21.228;2024-02-21T04:19:04;19.92;;;9.10;;
36253;SDS011;22291;52.250;21.228;2024-02-21T04:21:30;22.32;;;8.30;;
36253;SDS011;22291;52.250;21.228;2024-02-21T04:23:57;15.10;;;7.72;;
36253;SDS011;22291;52.250;21.228;2024-02-21T04:26:23;15.98;;;11.12;;
36253;SDS011;22291;52.250;21.228;2024-02-21T04:28:50;18.07;;;8.10;;
36253;SDS011;22291;52.250;21.228;2024-02-21T04:31:16;22.75;;;9.05;;
36253;SDS011;22291;52.250;21.228;2024-02-21T04:33:42;20.95;;;8.70;;
36253;SDS011;22291;52.250;21.228;2024-02-21T04:36:07;18.05;;;7.75;;
36253;SDS011;22291;52.250;21.228;2024-02-21T04:38:35;28.32;;;25.35;;
36253;SDS011;22291;52.250;21.228;2024-02-21T04:41:02;16.70;;;8.43;;
36253;SDS011;22291;52.250;21.228;2024-02-21T04:43:28;16.67;;;8.65;;
36253;SDS011;22291;52.250;21.228;2024-02-21T04:45:54;18.20;;;8.38;;
36253;SDS011;22291;52.250;21.228;2024-02-21T04:48:20;15.85;;;7.20;;
36253;SDS011;22291;52.250;21.228;2024-02-21T04:50:47;14.55;;;8.23;;
36253;SDS011;22291;52.250;21.228;2024-02-21T04:53:13;19.15;;;8.90;;
36253;SDS011;22291;52.250;21.228;2024-02-21T04:55:39;20.75;;;8.80;;
36253;SDS011;22291;52.250;21.228;2024-02-21T04:58:05;22.52;;;9.53;;
36253;SDS011;22291;52.250;21.228;2024-02-21T05:00:31;16.93;;;8.05;;
36253;SDS011;22291;52.250;21.228;2024-02-21T05:02:57;30.23;;;24.87;;
36253;SDS011;22291;52.250;21.228;2024-02-21T05:05:23;88.72;;;81.70;;
36253;SDS011;22291;52.250;21.228;2024-02-21T05:07:50;17.77;;;8.78;;
36253;SDS011;22291;52.250;21.228;2024-02-21T05:10:16;18.12;;;8.88;;
36253;SDS011;22291;52.250;21.228;2024-02-21T05:12:43;68.83;;;62.98;;
36253;SDS011;22291;52.250;21.228;2024-02-21T05:15:09;22.32;;;10.08;;
36253;SDS011;22291;52.250;21.228;2024-02-21T05:17:35;80.80;;;74.62;;
36253;SDS011;22291;52.250;21.228;2024-02-21T05:20:02;80.97;;;74.30;;
36253;SDS011;22291;52.250;21.228;2024-02-21T05:22:29;78.33;;;72.13;;
36253;SDS011;22291;52.250;21.228;2024-02-21T05:24:55;78.47;;;72.43;;
36253;SDS011;22291;52.250;21.228;2024-02-21T05:27:21;84.83;;;78.07;;
36253;SDS011;22291;52.250;21.228;2024-02-21T05:29:47;78.77;;;71.93;;
36253;SDS011;22291;52.250;21.228;2024-02-21T05:32:14;80.13;;;73.40;;
36253;SDS011;22291;52.250;21.228;2024-02-21T05:34:40;77.30;;;71.27;;
36253;SDS011;22291;52.250;21.228;2024-02-21T05:37:06;76.17;;;70.33;;
36253;SDS011;22291;52.250;21.228;2024-02-21T05:39:32;75.07;;;68.73;;
36253;SDS011;22291;52.250;21.228;2024-02-21T05:41:58;77.00;;;70.83;;
36253;SDS011;22291;52.250;21.228;2024-02-21T05:44:24;84.43;;;76.33;;
36253;SDS011;22291;52.250;21.228;2024-02-21T05:46:52;74.90;;;69.30;;
36253;SDS011;22291;52.250;21.228;2024-02-21T05:49:18;75.53;;;69.90;;
36253;SDS011;22291;52.250;21.228;2024-02-21T05:51:44;77.30;;;71.30;;
36253;SDS011;22291;52.250;21.228;2024-02-21T05:54:10;75.30;;;69.33;;
36253;SDS011;22291;52.250;21.228;2024-02-21T05:56:36;80.67;;;73.40;;
36253;SDS011;22291;52.250;21.228;2024-02-21T05:59:03;70.93;;;65.00;;
36253;SDS011;22291;52.250;21.228;2024-02-21T06:01:29;79.70;;;72.90;;
36253;SDS011;22291;52.250;21.228;2024-02-21T06:03:55;80.83;;;74.17;;
36253;SDS011;22291;52.250;21.228;2024-02-21T06:06:21;76.50;;;70.70;;
36253;SDS011;22291;52.250;21.228;2024-02-21T06:08:47;76.03;;;69.47;;
36253;SDS011;22291;52.250;21.228;2024-02-21T06:11:13;76.73;;;70.17;;
36253;SDS011;22291;52.250;21.228;2024-02-21T06:13:41;76.83;;;68.67;;
36253;SDS011;22291;52.250;21.228;2024-02-21T06:16:07;26.33;;;12.55;;
36253;SDS011;22291;52.250;21.228;2024-02-21T06:18:34;25.77;;;13.35;;
36253;SDS011;22291;52.250;21.228;2024-02-21T06:21:04;39.23;;;14.28;;
36253;SDS011;22291;52.250;21.228;2024-02-21T06:23:31;31.50;;;13.88;;
36253;SDS011;22291;52.250;21.228;2024-02-21T06:25:57;29.77;;;14.35;;
36253;SDS011;22291;52.250;21.228;2024-02-21T06:28:23;26.87;;;14.03;;
36253;SDS011;22291;52.250;21.228;2024-02-21T06:30:49;35.10;;;15.95;;
36253;SDS011;22291;52.250;21.228;2024-02-21T06:33:15;30.02;;;14.15;;
36253;SDS011;22291;52.250;21.228;2024-02-21T06:35:41;31.90;;;13.43;;
36253;SDS011;22291;52.250;21.228;2024-02-21T06:38:08;26.05;;;14.05;;
36253;SDS011;22291;52.250;21.228;2024-02-21T06:40:34;26.93;;;14.25;;
36253;SDS011;22291;52.250;21.228;2024-02-21T06:43:02;29.30;;;14.50;;
36253;SDS011;22291;52.250;21.228;2024-02-21T06:45:29;30.32;;;15.03;;
36253;SDS011;22291;52.250;21.228;2024-02-21T06:47:55;29.30;;;13.80;;
36253;SDS011;22291;52.250;21.228;2024-02-21T06:50:21;31.57;;;14.55;;
36253;SDS011;22291;52.250;21.228;2024-02-21T06:52:47;30.30;;;14.40;;
36253;SDS011;22291;52.250;21.228;2024-02-21T06:55:13;31.05;;;14.30;;
36253;SDS011;22291;52.250;21.228;2024-02-21T06:57:39;28.95;;;13.95;;
36253;SDS011;22291;52.250;21.228;2024-02-21T07:00:05;28.87;;;13.88;;
36253;SDS011;22291;52.250;21.228;2024-02-21T07:02:34;36.37;;;15.63;;
36253;SDS011;22291;52.250;21.228;2024-02-21T07:05:00;27.48;;;14.90;;
36253;SDS011;22291;52.250;21.228;2024-02-21T07:07:26;33.98;;;16.67;;
36253;SDS011;22291;52.250;21.228;2024-02-21T07:09:52;31.80;;;15.18;;
36253;SDS011;22291;52.250;21.228;2024-02-21T07:12:20;34.83;;;15.40;;
36253;SDS011;22291;52.250;21.228;2024-02-21T07:14:46;42.65;;;17.00;;
36253;SDS011;22291;52.250;21.228;2024-02-21T07:17:12;33.63;;;16.40;;
36253;SDS011;22291;52.250;21.228;2024-02-21T07:19:38;31.00;;;15.55;;
36253;SDS011;22291;52.250;21.228;2024-02-21T07:22:04;39.95;;;17.95;;
36253;SDS011;22291;52.250;21.228;2024-02-21T07:24:30;32.15;;;16.62;;
36253;SDS011;22291;52.250;21.228;2024-02-21T07:26:57;39.42;;;16.00;;
36253;SDS011;22291;52.250;21.228;2024-02-21T07:29:25;38.65;;;17.02;;
36253;SDS011;22291;52.250;21.228;2024-02-21T07:31:51;39.30;;;16.32;;
36253;SDS011;22291;52.250;21.228;2024-02-21T07:34:17;33.65;;;16.60;;
36253;SDS011;22291;52.250;21.228;2024-02-21T07:36:43;36.68;;;15.95;;
36253;SDS011;22291;52.250;21.228;2024-02-21T07:39:10;34.67;;;16.50;;
36253;SDS011;22291;52.250;21.228;2024-02-21T07:41:37;31.90;;;15.10;;
36253;SDS011;22291;52.250;21.228;2024-02-21T07:44:05;34.35;;;15.65;;
36253;SDS011;22291;52.250;21.228;2024-02-21T07:46:31;34.48;;;15.90;;
36253;SDS011;22291;52.250;21.228;2024-02-21T07:48:57;33.42;;;15.80;;
36253;SDS011;22291;52.250;21.228;2024-02-21T07:51:22;44.33;;;17.00;;
36253;SDS011;22291;52.250;21.228;2024-02-21T07:53:52;40.05;;;16.80;;
36253;SDS011;22291;52.250;21.228;2024-02-21T07:56:18;42.90;;;17.70;;
36253;SDS011;22291;52.250;21.228;2024-02-21T07:58:44;38.88;;;15.28;;
36253;SDS011;22291;52.250;21.228;2024-02-21T08:01:11;35.65;;;15.23;;
36253;SDS011;22291;52.250;21.228;2024-02-21T08:03:37;40.73;;;18.50;;
36253;SDS011;22291;52.250;21.228;2024-02-21T08:06:04;37.90;;;17.52;;
36253;SDS011;22291;52.250;21.228;2024-02-21T08:08:30;39.23;;;16.90;;
36253;SDS011;22291;52.250;21.228;2024-02-21T08:10:56;59.48;;;25.72;;
36253;SDS011;22291;52.250;21.228;2024-02-21T08:13:23;40.75;;;20.17;;
36253;SDS011;22291;52.250;21.228;2024-02-21T08:15:50;41.00;;;18.75;;
36253;SDS011;22291;52.250;21.228;2024-02-21T08:18:16;40.90;;;18.30;;
36253;SDS011;22291;52.250;21.228;2024-02-21T08:20:42;37.48;;;17.67;;
36253;SDS011;22291;52.250;21.228;2024-02-21T08:23:08;37.65;;;19.37;;
36253;SDS011;22291;52.250;21.228;2024-02-21T08:25:34;47.55;;;20.60;;
36253;SDS011;22291;52.250;21.228;2024-02-21T08:27:59;44.05;;;20.52;;
36253;SDS011;22291;52.250;21.228;2024-02-21T08:30:26;44.20;;;21.35;;
36253;SDS011;22291;52.250;21.228;2024-02-21T08:32:53;44.42;;;20.45;;
36253;SDS011;22291;52.250;21.228;2024-02-21T08:35:19;50.92;;;20.10;;
36253;SDS011;22291;52.250;21.228;2024-02-21T08:37:49;40.55;;;20.10;;
36253;SDS011;22291;52.250;21.228;2024-02-21T08:40:15;44.80;;;20.12;;
36253;SDS011;22291;52.250;21.228;2024-02-21T08:42:44;44.35;;;19.05;;
36253;SDS011;22291;52.250;21.228;2024-02-21T08:45:11;44.15;;;19.32;;
36253;SDS011;22291;52.250;21.228;2024-02-21T08:47:40;35.55;;;17.50;;
36253;SDS011;22291;52.250;21.228;2024-02-21T08:50:08;41.63;;;18.65;;
36253;SDS011;22291;52.250;21.228;2024-02-21T08:52:36;36.73;;;16.95;;
36253;SDS011;22291;52.250;21.228;2024-02-21T08:55:02;40.78;;;17.45;;
36253;SDS011;22291;52.250;21.228;2024-02-21T08:57:30;38.17;;;17.75;;
36253;SDS011;22291;52.250;21.228;2024-02-21T08:59:57;45.20;;;19.05;;
36253;SDS011;22291;52.250;21.228;2024-02-21T09:02:24;36.17;;;16.97;;
36253;SDS011;22291;52.250;21.228;2024-02-21T09:04:49;41.37;;;18.48;;
36253;SDS011;22291;52.250;21.228;2024-02-21T09:07:15;35.85;;;16.75;;
36253;SDS011;22291;52.250;21.228;2024-02-21T09:09:41;33.28;;;17.37;;
36253;SDS011;22291;52.250;21.228;2024-02-21T09:12:07;42.27;;;17.52;;
36253;SDS011;22291;52.250;21.228;2024-02-21T09:14:36;43.13;;;17.70;;
36253;SDS011;22291;52.250;21.228;2024-02-21T09:17:06;42.60;;;16.95;;
36253;SDS011;22291;52.250;21.228;2024-02-21T09:19:33;38.42;;;16.62;;
36253;SDS011;22291;52.250;21.228;2024-02-21T09:22:00;36.75;;;15.90;;
36253;SDS011;22291;52.250;21.228;2024-02-21T09:24:28;38.30;;;15.40;;
36253;SDS011;22291;52.250;21.228;2024-02-21T09:26:54;40.25;;;15.63;;
36253;SDS011;22291;52.250;21.228;2024-02-21T09:29:21;36.20;;;15.88;;
36253;SDS011;22291;52.250;21.228;2024-02-21T09:31:47;31.80;;;14.53;;
36253;SDS011;22291;52.250;21.228;2024-02-21T09:34:13;34.67;;;15.32;;
36253;SDS011;22291;52.250;21.228;2024-02-21T09:36:40;33.18;;;15.18;;
36253;SDS011;22291;52.250;21.228;2024-02-21T09:39:06;41.25;;;16.12;;
36253;SDS011;22291;52.250;21.228;2024-02-21T09:41:32;38.60;;;16.32;;
36253;SDS011;22291;52.250;21.228;2024-02-21T09:44:01;35.55;;;15.13;;
36253;SDS011;22291;52.250;21.228;2024-02-21T09:46:35;33.63;;;13.32;;
36253;SDS011;22291;52.250;21.228;2024-02-21T09:49:35;30.10;;;14.65;;
36253;SDS011;22291;52.250;21.228;2024-02-21T09:51:57;32.88;;;13.68;;
36253;SDS011;22291;52.250;21.228;2024-02-21T09:54:28;31.57;;;15.15;;
36253;SDS011;22291;52.250;21.228;2024-02-21T09:56:59;32.35;;;14.25;;
36253;SDS011;22291;52.250;21.228;2024-02-21T10:01:56;31.42;;;12.68;;
36253;SDS011;22291;52.250;21.228;2024-02-21T10:04:23;35.35;;;13.20;;
36253;SDS011;22291;52.250;21.228;2024-02-21T10:06:50;29.10;;;12.28;;
36253;SDS011;22291;52.250;21.228;2024-02-21T10:11:49;23.70;;;11.48;;
36253;SDS011;22291;52.250;21.228;2024-02-21T10:14:17;34.75;;;12.25;;
36253;SDS011;22291;52.250;21.228;2024-02-21T10:16:48;29.98;;;12.53;;
36253;SDS011;22291;52.250;21.228;2024-02-21T10:19:18;36.93;;;13.53;;
36253;SDS011;22291;52.250;21.228;2024-02-21T10:24:33;46.33;;;13.88;;
36253;SDS011;22291;52.250;21.228;2024-02-21T10:27:05;31.02;;;12.75;;
36253;SDS011;22291;52.250;21.228;2024-02-21T10:29:34;26.80;;;12.05;;
36253;SDS011;22291;52.250;21.228;2024-02-21T10:32:08;25.37;;;10.32;;
36253;SDS011;22291;52.250;21.228;2024-02-21T10:34:37;39.33;;;14.75;;
36253;SDS011;22291;52.250;21.228;2024-02-21T10:37:06;28.30;;;12.98;;
36253;SDS011;22291;52.250;21.228;2024-02-21T10:39:35;28.80;;;10.57;;
36253;SDS011;22291;52.250;21.228;2024-02-21T10:42:04;29.20;;;11.28;;
36253;SDS011;22291;52.250;21.228;2024-02-21T10:44:36;34.03;;;11.12;;
36253;SDS011;22291;52.250;21.228;2024-02-21T10:47:00;25.82;;;10.85;;
36253;SDS011;22291;52.250;21.228;2024-02-21T10:49:33;33.55;;;11.28;;
36253;SDS011;22291;52.250;21.228;2024-02-21T10:54:58;25.90;;;9.68;;
36253;SDS011;22291;52.250;21.228;2024-02-21T10:57:28;30.52;;;9.85;;
36253;SDS011;22291;52.250;21.228;2024-02-21T10:59:58;23.60;;;9.75;;
36253;SDS011;22291;52.250;21.228;2024-02-21T11:02:28;24.87;;;9.33;;
36253;SDS011;22291;52.250;21.228;2024-02-21T11:04:56;22.15;;;10.23;;
36253;SDS011;22291;52.250;21.228;2024-02-21T11:07:24;24.02;;;9.70;;
36253;SDS011;22291;52.250;21.228;2024-02-21T11:09:51;31.60;;;10.75;;
36253;SDS011;22291;52.250;21.228;2024-02-21T11:12:20;26.37;;;10.00;;
36253;SDS011;22291;52.250;21.228;2024-02-21T11:14:48;28.65;;;11.30;;
36253;SDS011;22291;52.250;21.228;2024-02-21T11:17:18;20.72;;;10.15;;
36253;SDS011;22291;52.250;21.228;2024-02-21T11:19:50;28.75;;;10.90;;
36253;SDS011;22291;52.250;21.228;2024-02-21T11:22:16;33.78;;;11.80;;
36253;SDS011;22291;52.250;21.228;2024-02-21T11:24:45;29.80;;;12.18;;
36253;SDS011;22291;52.250;21.228;2024-02-21T11:27:16;22.90;;;10.58;;
36253;SDS011;22291;52.250;21.228;2024-02-21T11:29:57;30.97;;;10.78;;
36253;SDS011;22291;52.250;21.228;2024-02-21T11:32:25;27.67;;;11.05;;
36253;SDS011;22291;52.250;21.228;2024-02-21T11:35:01;27.32;;;12.10;;
36253;SDS011;22291;52.250;21.228;2024-02-21T11:37:30;38.75;;;18.50;;
36253;SDS011;22291;52.250;21.228;2024-02-21T11:40:08;29.10;;;12.60;;
36253;SDS011;22291;52.250;21.228;2024-02-21T11:42:35;29.12;;;13.95;;
36253;SDS011;22291;52.250;21.228;2024-02-21T11:45:01;32.67;;;12.93;;
36253;SDS011;22291;52.250;21.228;2024-02-21T11:47:29;27.10;;;13.43;;
36253;SDS011;22291;52.250;21.228;2024-02-21T11:49:55;31.50;;;13.18;;
36253;SDS011;22291;52.250;21.228;2024-02-21T11:52:21;37.00;;;15.28;;
36253;SDS011;22291;52.250;21.228;2024-02-21T11:54:51;31.35;;;14.87;;
36253;SDS011;22291;52.250;21.228;2024-02-21T11:57:20;28.80;;;14.80;;
36253;SDS011;22291;52.250;21.228;2024-02-21T11:59:48;39.73;;;15.30;;
36253;SDS011;22291;52.250;21.228;2024-02-21T12:02:16;37.93;;;16.15;;
36253;SDS011;22291;52.250;21.228;2024-02-21T12:04:44;32.45;;;16.15;;
36253;SDS011;22291;52.250;21.228;2024-02-21T12:07:10;36.95;;;16.40;;
36253;SDS011;22291;52.250;21.228;2024-02-21T12:09:36;35.30;;;17.20;;
36253;SDS011;22291;52.250;21.228;2024-02-21T12:12:03;37.30;;;17.62;;
36253;SDS011;22291;52.250;21.228;2024-02-21T12:14:32;35.00;;;17.42;;
36253;SDS011;22291;52.250;21.228;2024-02-21T12:17:00;35.25;;;17.00;;
36253;SDS011;22291;52.250;21.228;2024-02-21T12:19:32;33.15;;;17.30;;
36253;SDS011;22291;52.250;21.228;2024-02-21T12:22:02;44.85;;;17.62;;
36253;SDS011;22291;52.250;21.228;2024-02-21T12:24:29;31.35;;;17.17;;
36253;SDS011;22291;52.250;21.228;2024-02-21T12:26:57;38.67;;;17.10;;
36253;SDS011;22291;52.250;21.228;2024-02-21T12:29:25;41.00;;;18.67;;
36253;SDS011;22291;52.250;21.228;2024-02-21T12:31:52;41.92;;;19.73;;
36253;SDS011;22291;52.250;21.228;2024-02-21T12:34:20;40.73;;;18.92;;
36253;SDS011;22291;52.250;21.228;2024-02-21T12:36:49;44.55;;;20.27;;
36253;SDS011;22291;52.250;21.228;2024-02-21T12:39:15;47.25;;;19.23;;
36253;SDS011;22291;52.250;21.228;2024-02-21T12:41:43;41.85;;;19.57;;
36253;SDS011;22291;52.250;21.228;2024-02-21T12:44:11;37.67;;;18.98;;
36253;SDS011;22291;52.250;21.228;2024-02-21T12:46:48;45.20;;;18.62;;
36253;SDS011;22291;52.250;21.228;2024-02-21T12:49:17;39.85;;;19.95;;
36253;SDS011;22291;52.250;21.228;2024-02-21T12:51:44;41.92;;;19.80;;
36253;SDS011;22291;52.250;21.228;2024-02-21T12:54:13;42.83;;;20.15;;
36253;SDS011;22291;52.250;21.228;2024-02-21T12:56:41;37.60;;;20.12;;
36253;SDS011;22291;52.250;21.228;2024-02-21T12:59:07;38.55;;;19.87;;
36253;SDS011;22291;52.250;21.228;2024-02-21T13:01:36;44.10;;;20.25;;
36253;SDS011;22291;52.250;21.228;2024-02-21T13:04:04;39.55;;;19.32;;
36253;SDS011;22291;52.250;21.228;2024-02-21T13:06:32;42.70;;;20.75;;
36253;SDS011;22291;52.250;21.228;2024-02-21T13:08:58;40.88;;;22.60;;
36253;SDS011;22291;52.250;21.228;2024-02-21T13:11:26;42.53;;;21.48;;
36253;SDS011;22291;52.250;21.228;2024-02-21T13:13:54;43.80;;;21.95;;
36253;SDS011;22291;52.250;21.228;2024-02-21T13:16:20;49.18;;;21.97;;
36253;SDS011;22291;52.250;21.228;2024-02-21T13:18:46;40.98;;;20.85;;
36253;SDS011;22291;52.250;21.228;2024-02-21T13:21:14;46.63;;;22.25;;
36253;SDS011;22291;52.250;21.228;2024-02-21T13:23:40;42.95;;;20.88;;
36253;SDS011;22291;52.250;21.228;2024-02-21T13:26:06;43.58;;;19.52;;
36253;SDS011;22291;52.250;21.228;2024-02-21T13:28:35;42.98;;;20.37;;
36253;SDS011;22291;52.250;21.228;2024-02-21T13:31:01;38.10;;;20.35;;
36253;SDS011;22291;52.250;21.228;2024-02-21T13:33:29;38.88;;;19.40;;
36253;SDS011;22291;52.250;21.228;2024-02-21T13:35:55;40.12;;;19.12;;
36253;SDS011;22291;52.250;21.228;2024-02-21T13:38:24;34.80;;;18.90;;
36253;SDS011;22291;52.250;21.228;2024-02-21T13:43:33;35.40;;;19.10;;
36253;SDS011;22291;52.250;21.228;2024-02-21T13:46:01;36.25;;;19.57;;
36253;SDS011;22291;52.250;21.228;2024-02-21T13:48:30;45.20;;;21.27;;
36253;SDS011;22291;52.250;21.228;2024-02-21T13:50:59;42.80;;;20.40;;
36253;SDS011;22291;52.250;21.228;2024-02-21T13:53:28;41.40;;;20.65;;
36253;SDS011;22291;52.250;21.228;2024-02-21T13:55:55;44.20;;;21.37;;
36253;SDS011;22291;52.250;21.228;2024-02-21T13:58:23;44.35;;;20.43;;
36253;SDS011;22291;52.250;21.228;2024-02-21T14:00:51;42.85;;;19.42;;
36253;SDS011;22291;52.250;21.228;2024-02-21T14:03:19;37.73;;;19.45;;
36253;SDS011;22291;52.250;21.228;2024-02-21T14:05:47;34.03;;;18.67;;
36253;SDS011;22291;52.250;21.228;2024-02-21T14:08:18;44.50;;;19.12;;
36253;SDS011;22291;52.250;21.228;2024-02-21T14:10:44;38.53;;;18.92;;
36253;SDS011;22291;52.250;21.228;2024-02-21T14:13:10;40.25;;;18.42;;
36253;SDS011;22291;52.250;21.228;2024-02-21T14:15:39;39.90;;;19.07;;
36253;SDS011;22291;52.250;21.228;2024-02-21T14:18:09;33.42;;;18.48;;
36253;SDS011;22291;52.250;21.228;2024-02-21T14:20:37;42.25;;;19.10;;
36253;SDS011;22291;52.250;21.228;2024-02-21T14:23:05;38.23;;;18.32;;
36253;SDS011;22291;52.250;21.228;2024-02-21T14:25:31;42.25;;;19.48;;
36253;SDS011;22291;52.250;21.228;2024-02-21T14:27:59;36.17;;;18.60;;